createdAt,value
2022-09-17T00:01:44.740Z,97648.75
2022-09-17T00:04:12.963Z,97648.34
2022-09-17T00:06:41.508Z,97644.03
2022-09-17T00:09:12.917Z,97650.72
2022-09-17T00:11:43.317Z,97648.72
2022-09-17T00:14:17.226Z,97640.00
2022-09-17T00:16:47.374Z,97636.88
2022-09-17T00:19:21.791Z,97646.94
2022-09-17T00:21:50.895Z,97641.63
2022-09-17T00:24:20.713Z,97628.41
2022-09-17T00:26:50.253Z,97645.00
2022-09-17T00:29:20.366Z,97644.03
2022-09-17T00:31:48.993Z,97642.75
2022-09-17T00:34:17.760Z,97656.22
2022-09-17T00:36:46.122Z,97656.41
2022-09-17T00:39:15.785Z,97655.72
2022-09-17T00:41:46.725Z,97653.88
2022-09-17T00:44:47.202Z,97654.53
2022-09-17T00:47:21.918Z,97656.53
2022-09-17T00:49:52.532Z,97656.28
2022-09-17T00:52:27.436Z,97664.75
2022-09-17T00:55:01.064Z,97663.84
2022-09-17T00:57:32.673Z,97670.31
2022-09-17T01:00:03.376Z,97670.88
2022-09-17T01:02:32.362Z,97672.84
2022-09-17T01:05:00.800Z,97672.22
2022-09-17T01:07:45.550Z,97675.59
2022-09-17T01:10:25.531Z,97679.28
2022-09-17T01:13:12.926Z,97679.72
2022-09-17T01:15:48.948Z,97686.19
2022-09-17T01:18:29.846Z,97683.63
2022-09-17T01:21:25.251Z,97680.47
2022-09-17T01:24:50.563Z,97675.16
2022-09-17T01:28:09.204Z,97677.44
2022-09-17T01:31:16.730Z,97678.91
2022-09-17T01:33:55.056Z,97686.00
2022-09-17T01:36:35.588Z,97682.94
2022-09-17T01:39:10.248Z,97677.09
2022-09-17T01:41:44.714Z,97674.94
2022-09-17T01:44:21.475Z,97684.41
2022-09-17T01:46:54.851Z,97687.53
2022-09-17T01:49:26.692Z,97683.84
2022-09-17T01:51:56.684Z,97686.22
2022-09-17T01:54:29.116Z,97684.00
2022-09-17T01:57:03.421Z,97691.22
2022-09-17T01:59:35.643Z,97694.56
2022-09-17T02:02:10.168Z,97697.19
2022-09-17T02:04:45.901Z,97696.75
2022-09-17T02:07:21.314Z,97701.84
2022-09-17T02:09:53.840Z,97706.53
2022-09-17T02:12:29.654Z,97706.34
2022-09-17T02:15:01.766Z,97716.47
2022-09-17T02:17:35.930Z,97712.00
2022-09-17T02:20:07.522Z,97719.44
2022-09-17T02:22:41.641Z,97718.44
2022-09-17T02:25:16.200Z,97724.53
2022-09-17T02:27:54.153Z,97723.91
2022-09-17T02:30:22.724Z,97732.50
2022-09-17T02:32:51.607Z,97735.97
2022-09-17T02:35:21.787Z,97727.88
2022-09-17T02:37:50.310Z,97727.09
2022-09-17T02:40:20.268Z,97730.25
2022-09-17T02:43:04.618Z,97721.56
2022-09-17T02:45:47.438Z,97738.22
2022-09-17T02:48:35.804Z,97737.16
2022-09-17T02:51:28.258Z,97743.31
2022-09-17T02:54:03.773Z,97730.78
2022-09-17T02:56:46.320Z,97739.25
2022-09-17T02:59:22.652Z,97735.44
2022-09-17T03:01:58.302Z,97728.91
2022-09-17T03:04:29.870Z,97735.94
2022-09-17T03:07:09.107Z,97734.34
2022-09-17T03:09:37.685Z,97734.66
2022-09-17T03:12:06.614Z,97741.06
2022-09-17T03:14:35.068Z,97742.94
2022-09-17T03:17:03.698Z,97742.56
2022-09-17T03:19:32.092Z,97746.13
2022-09-17T03:22:00.588Z,97752.03
2022-09-17T03:24:31.393Z,97754.50
2022-09-17T03:27:00.071Z,97753.56
2022-09-17T03:29:28.530Z,97764.03
2022-09-17T03:31:57.071Z,97763.16
2022-09-17T03:34:25.552Z,97775.72
2022-09-17T03:36:54.243Z,97782.28
2022-09-17T03:39:23.544Z,97770.16
2022-09-17T03:41:56.321Z,97776.69
2022-09-17T03:44:24.906Z,97774.56
2022-09-17T03:46:53.954Z,97775.88
2022-09-17T03:49:24.011Z,97762.31
2022-09-17T03:51:52.571Z,97773.88
2022-09-17T03:54:21.014Z,97779.31
2022-09-17T03:56:49.481Z,97772.97
2022-09-17T03:59:19.432Z,97783.50
2022-09-17T04:01:48.119Z,97789.50
2022-09-17T04:04:16.755Z,97784.97
2022-09-17T04:06:45.444Z,97780.63
2022-09-17T04:09:13.848Z,97781.81
2022-09-17T04:11:42.426Z,97783.28
2022-09-17T04:14:10.900Z,97787.56
2022-09-17T04:16:40.923Z,97789.59
2022-09-17T04:19:09.546Z,97790.78
2022-09-17T04:21:38.076Z,97789.28
2022-09-17T04:24:07.008Z,97798.72
2022-09-17T04:26:35.136Z,97797.81
2022-09-17T04:29:03.549Z,97799.78
2022-09-17T04:31:32.187Z,97810.94
2022-09-17T04:34:02.121Z,97799.63
2022-09-17T04:36:30.748Z,97794.78
2022-09-17T04:38:59.310Z,97805.63
2022-09-17T04:41:28.113Z,97801.69
2022-09-17T04:43:56.697Z,97798.31
2022-09-17T04:46:25.418Z,97812.16
2022-09-17T04:48:54.196Z,97813.72
2022-09-17T04:51:24.646Z,97808.91
2022-09-17T04:53:53.125Z,97812.72
2022-09-17T04:56:21.895Z,97810.53
2022-09-17T04:58:50.316Z,97814.19
2022-09-17T05:01:19.111Z,97820.16
2022-09-17T05:03:47.691Z,97814.38
2022-09-17T05:06:16.259Z,97818.06
2022-09-17T05:08:59.711Z,97819.31
2022-09-17T05:11:29.116Z,97768.41
2022-09-17T05:13:58.025Z,97814.75
2022-09-17T05:16:27.311Z,97828.88
2022-09-17T05:18:56.294Z,97823.47
2022-09-17T05:21:25.246Z,97822.13
2022-09-17T05:23:55.145Z,97830.50
2022-09-17T05:26:23.783Z,97836.00
2022-09-17T05:28:52.332Z,97835.19
2022-09-17T05:31:21.126Z,97840.22
2022-09-17T05:33:49.744Z,97837.13
2022-09-17T05:36:18.599Z,97842.63
2022-09-17T05:38:47.177Z,97847.78
2022-09-17T05:41:17.191Z,97844.81
2022-09-17T05:43:45.830Z,97837.81
2022-09-17T05:46:14.480Z,97855.22
2022-09-17T05:48:43.799Z,97858.97
2022-09-17T05:51:12.751Z,97857.59
2022-09-17T05:53:49.821Z,97866.47
2022-09-17T05:56:22.092Z,97862.50
2022-09-17T05:59:07.739Z,97867.59
2022-09-17T06:01:39.672Z,97873.38
2022-09-17T06:04:09.152Z,97878.03
2022-09-17T06:06:39.055Z,97852.88
2022-09-17T06:09:07.941Z,97876.66
2022-09-17T06:11:38.294Z,97875.63
2022-09-17T06:14:09.552Z,97880.16
2022-09-17T06:16:42.046Z,97886.75
2022-09-17T06:19:11.023Z,97877.84
2022-09-17T06:21:42.532Z,97883.31
2022-09-17T06:24:11.739Z,97888.53
2022-09-17T06:26:43.981Z,97888.53
2022-09-17T06:29:23.874Z,97887.94
2022-09-17T06:31:54.253Z,97892.34
2022-09-17T06:34:22.934Z,97883.56
2022-09-17T06:36:53.844Z,97885.63
2022-09-17T06:39:29.279Z,97896.81
2022-09-17T06:42:03.453Z,97895.81
2022-09-17T06:44:37.071Z,97892.50
2022-09-17T06:47:08.335Z,97893.69
2022-09-17T06:49:39.427Z,97901.34
2022-09-17T06:52:11.189Z,97905.25
2022-09-17T06:54:42.255Z,97904.28
2022-09-17T06:57:12.339Z,97899.13
2022-09-17T06:59:40.924Z,97899.44
2022-09-17T07:02:10.380Z,97902.69
2022-09-17T07:04:40.854Z,97907.56
2022-09-17T07:07:09.941Z,97909.34
2022-09-17T07:09:38.508Z,97907.28
2022-09-17T07:12:10.461Z,97899.97
2022-09-17T07:14:40.448Z,97906.28
2022-09-17T07:17:09.206Z,97905.44
2022-09-17T07:19:38.646Z,97916.69
2022-09-17T07:22:07.498Z,97915.66
2022-09-17T07:24:36.441Z,97921.72
2022-09-17T07:27:05.015Z,97915.94
2022-09-17T07:29:33.537Z,97921.91
2022-09-17T07:32:03.944Z,97930.44
2022-09-17T07:34:32.549Z,97919.47
2022-09-17T07:37:01.008Z,97924.00
2022-09-17T07:39:30.046Z,97916.13
2022-09-17T07:41:59.085Z,97909.16
2022-09-17T07:44:28.687Z,97913.97
2022-09-17T07:46:57.215Z,97912.72
2022-09-17T07:49:29.000Z,97914.25
2022-09-17T07:51:57.744Z,97917.00
2022-09-17T07:54:33.741Z,97921.06
2022-09-17T07:57:02.460Z,97911.00
2022-09-17T07:59:32.375Z,97923.19
2022-09-17T08:02:01.311Z,97922.91
2022-09-17T08:04:34.336Z,97914.81
2022-09-17T08:07:05.969Z,97917.31
2022-09-17T08:09:34.733Z,97915.59
2022-09-17T08:12:03.761Z,97923.69
2022-09-17T08:14:39.949Z,97928.88
2022-09-17T08:17:23.985Z,97933.41
2022-09-17T08:19:54.749Z,97931.97
2022-09-17T08:22:23.457Z,97930.28
2022-09-17T08:25:00.982Z,97929.84
2022-09-17T08:27:59.572Z,97914.94
2022-09-17T08:30:28.587Z,97940.88
2022-09-17T08:32:57.769Z,97922.63
2022-09-17T08:35:29.454Z,97929.81
2022-09-17T08:37:58.534Z,97909.75
2022-09-17T08:40:30.538Z,97925.34
2022-09-17T08:43:08.373Z,97928.19
2022-09-17T08:45:50.974Z,97929.69
2022-09-17T08:48:20.317Z,97921.09
2022-09-17T08:50:52.147Z,97920.75
2022-09-17T08:53:38.816Z,97944.81
2022-09-17T08:56:21.598Z,97941.81
2022-09-17T08:59:21.010Z,97929.06
2022-09-17T09:02:03.506Z,97944.41
2022-09-17T09:04:47.487Z,97938.47
2022-09-17T09:07:32.402Z,97941.22
2022-09-17T09:10:14.229Z,97929.88
2022-09-17T09:12:44.828Z,97945.00
2022-09-17T09:15:27.860Z,97944.09
2022-09-17T09:18:09.437Z,97940.66
2022-09-17T09:20:47.363Z,97946.22
2022-09-17T09:23:21.367Z,97930.25
2022-09-17T09:26:05.176Z,97934.22
2022-09-17T09:28:44.534Z,97937.31
2022-09-17T09:31:43.027Z,97948.91
2022-09-17T09:34:17.326Z,97929.88
2022-09-17T09:36:48.374Z,97937.41
2022-09-17T09:39:35.077Z,97938.91
2022-09-17T09:42:18.790Z,97939.44
2022-09-17T09:44:53.367Z,97934.94
2022-09-17T09:47:45.132Z,97952.91
2022-09-17T09:50:48.341Z,97950.06
2022-09-17T09:53:33.019Z,97948.09
2022-09-17T09:56:17.083Z,97950.44
2022-09-17T09:58:45.777Z,97951.22
2022-09-17T10:01:16.182Z,97957.44
2022-09-17T10:03:46.440Z,97955.25
2022-09-17T10:06:27.116Z,97948.56
2022-09-17T10:09:24.268Z,97963.59
2022-09-17T10:12:22.634Z,97962.97
2022-09-17T10:14:51.700Z,97932.81
2022-09-17T10:17:23.273Z,97962.31
2022-09-17T10:20:20.733Z,97964.72
2022-09-17T10:22:52.258Z,97964.03
2022-09-17T10:25:32.131Z,97972.59
2022-09-17T10:28:05.948Z,97977.53
2022-09-17T10:30:36.304Z,97983.75
2022-09-17T10:33:21.062Z,97985.50
2022-09-17T10:36:01.499Z,97979.28
2022-09-17T10:38:36.229Z,97982.97
2022-09-17T10:41:13.441Z,97987.81
2022-09-17T10:43:44.207Z,97984.94
2022-09-17T10:46:17.431Z,97990.75
2022-09-17T10:48:55.475Z,97998.50
2022-09-17T10:51:26.772Z,97998.59
2022-09-17T10:54:15.881Z,97992.63
2022-09-17T10:56:48.261Z,98004.25
2022-09-17T11:00:00.408Z,97992.69
2022-09-17T11:02:51.093Z,97988.59
2022-09-17T11:05:39.488Z,97986.72
2022-09-17T11:08:14.060Z,97989.75
2022-09-17T11:10:55.022Z,97984.97
2022-09-17T11:13:32.325Z,97990.47
2022-09-17T11:16:17.522Z,97979.78
2022-09-17T11:18:56.499Z,97983.94
2022-09-17T11:21:37.234Z,97990.94
2022-09-17T11:24:50.142Z,98000.06
2022-09-17T11:27:31.407Z,98007.34
2022-09-17T11:30:10.565Z,98011.75
2022-09-17T11:33:18.233Z,98009.47
2022-09-17T11:35:50.458Z,98010.16
2022-09-17T11:38:25.607Z,98017.84
2022-09-17T11:41:03.050Z,98011.81
2022-09-17T11:43:35.907Z,98034.47
2022-09-17T11:46:10.826Z,98032.59
2022-09-17T11:48:47.473Z,98028.19
2022-09-17T11:51:27.486Z,98031.59
2022-09-17T11:54:02.486Z,98030.91
2022-09-17T11:56:37.435Z,98019.09
2022-09-17T11:59:12.508Z,98016.41
2022-09-17T12:01:47.438Z,98018.88
2022-09-17T12:04:33.817Z,98022.84
2022-09-17T12:07:17.573Z,98026.84
2022-09-17T12:09:50.837Z,98030.50
2022-09-17T12:12:47.659Z,98024.94
2022-09-17T12:15:18.690Z,98023.31
2022-09-17T12:18:14.250Z,98029.38
2022-09-17T12:20:49.224Z,98017.78
2022-09-17T12:23:33.193Z,98022.53
2022-09-17T12:26:09.799Z,98032.34
2022-09-17T12:28:46.941Z,98025.69
2022-09-17T12:31:22.587Z,98025.78
2022-09-17T12:33:56.638Z,98025.78
2022-09-17T12:36:50.310Z,98025.78
2022-09-17T12:39:44.394Z,98030.03
2022-09-17T12:42:24.239Z,98029.44
2022-09-17T12:45:15.727Z,98028.47
2022-09-17T12:47:59.700Z,98031.53
2022-09-17T12:50:39.934Z,98035.19
2022-09-17T12:53:22.395Z,98034.28
2022-09-17T12:56:07.426Z,98035.91
2022-09-17T12:58:50.162Z,98045.13
2022-09-17T13:01:24.462Z,98054.97
2022-09-17T13:03:59.101Z,98057.78
2022-09-17T13:07:04.000Z,98061.53
2022-09-17T13:09:57.197Z,98075.94
2022-09-17T13:12:35.617Z,98068.13
2022-09-17T13:15:43.277Z,98063.91
2022-09-17T13:18:26.699Z,98062.72
2022-09-17T13:21:05.718Z,98057.72
2022-09-17T13:23:39.117Z,98059.38
2022-09-17T13:26:10.158Z,98065.03
2022-09-17T13:28:46.774Z,98052.91
2022-09-17T13:31:22.056Z,98065.66
2022-09-17T13:34:00.293Z,98064.88
2022-09-17T13:36:59.804Z,98058.56
2022-09-17T13:39:47.171Z,98060.22
2022-09-17T13:42:28.178Z,98061.91
2022-09-17T13:45:09.996Z,98056.94
2022-09-17T13:47:41.753Z,98050.09
2022-09-17T13:50:13.993Z,98052.78
2022-09-17T13:52:46.907Z,98056.69
2022-09-17T13:55:37.150Z,98046.31
2022-09-17T13:58:09.999Z,98058.53
2022-09-17T14:00:54.365Z,98052.53
2022-09-17T14:04:04.836Z,98056.03
2022-09-17T14:06:56.048Z,98056.34
2022-09-17T14:09:39.355Z,98053.84
2022-09-17T14:12:41.841Z,98052.69
2022-09-17T14:15:55.630Z,98049.13
2022-09-17T14:18:44.172Z,98048.16
2022-09-17T14:21:21.850Z,98055.56
2022-09-17T14:23:57.674Z,98050.53
2022-09-17T14:26:52.772Z,98050.97
2022-09-17T14:30:05.613Z,98043.44
2022-09-17T14:32:42.362Z,98052.94
2022-09-17T14:35:32.825Z,98057.50
2022-09-17T14:38:05.302Z,98051.47
2022-09-17T14:40:35.595Z,98056.59
2022-09-17T14:43:04.965Z,98051.72
2022-09-17T14:45:38.263Z,98057.22
2022-09-17T14:48:27.644Z,98058.97
2022-09-17T14:51:15.501Z,98058.47
2022-09-17T14:53:44.386Z,98056.31
2022-09-17T14:56:15.148Z,98063.56
2022-09-17T14:58:48.565Z,98073.47
2022-09-17T15:01:25.033Z,98072.91
2022-09-17T15:04:29.780Z,98074.84
2022-09-17T15:07:11.400Z,98075.00
2022-09-17T15:09:43.253Z,98084.84
2022-09-17T15:12:32.458Z,98079.00
2022-09-17T15:15:01.456Z,98079.09
2022-09-17T15:17:33.542Z,98074.28
2022-09-17T15:20:07.066Z,98082.31
2022-09-17T15:22:42.121Z,98075.34
2022-09-17T15:25:17.413Z,98084.34
2022-09-17T15:27:47.369Z,98088.34
2022-09-17T15:30:19.388Z,98084.03
2022-09-17T15:32:54.455Z,98092.44
2022-09-17T15:35:30.552Z,98100.84
2022-09-17T15:40:52.043Z,98109.03
2022-09-17T15:43:29.007Z,98137.72
2022-09-17T15:45:59.285Z,98137.88
2022-09-17T15:48:37.648Z,98114.47
2022-09-17T15:51:20.106Z,98129.34
2022-09-17T15:54:12.236Z,98114.75
2022-09-17T15:56:45.530Z,98118.56
2022-09-17T15:59:29.470Z,98120.38
2022-09-17T16:02:01.447Z,98098.84
2022-09-17T16:04:32.387Z,98135.56
2022-09-17T16:07:25.789Z,98164.47
2022-09-17T16:09:56.797Z,98171.81
2022-09-17T16:12:34.429Z,98176.13
2022-09-17T16:15:03.710Z,98167.94
2022-09-17T16:17:45.226Z,98174.06
2022-09-17T16:20:17.971Z,98144.22
2022-09-17T16:22:48.262Z,98136.66
2022-09-17T16:25:19.920Z,98130.22
2022-09-17T16:27:52.123Z,98154.44
2022-09-17T16:30:23.383Z,98172.56
2022-09-17T16:32:53.087Z,98176.50
2022-09-17T16:35:23.662Z,98169.78
2022-09-17T16:37:54.159Z,98173.38
2022-09-17T16:40:28.008Z,98176.63
2022-09-17T16:42:57.212Z,98168.94
2022-09-17T16:45:28.964Z,98178.47
2022-09-17T16:48:00.679Z,98171.75
2022-09-17T16:50:29.639Z,98181.53
2022-09-17T16:53:02.801Z,98188.25
2022-09-17T16:55:35.008Z,98188.59
2022-09-17T16:58:03.660Z,98192.06
2022-09-17T17:00:32.365Z,98191.28
2022-09-17T17:03:09.930Z,98183.72
2022-09-17T17:05:39.073Z,98182.72
2022-09-17T17:08:09.255Z,98182.09
2022-09-17T17:10:41.009Z,98177.56
2022-09-17T17:13:22.515Z,98174.50
2022-09-17T17:15:56.951Z,98157.16
2022-09-17T17:18:25.983Z,98171.16
2022-09-17T17:20:54.176Z,98184.16
2022-09-17T17:23:22.796Z,98174.56
2022-09-17T17:25:52.773Z,98172.13
2022-09-17T17:28:21.684Z,98182.78
2022-09-17T17:30:53.422Z,98182.91
2022-09-17T17:33:30.780Z,98186.31
2022-09-17T17:37:00.854Z,98136.47
2022-09-17T17:39:52.086Z,98193.28
2022-09-17T17:42:23.227Z,98187.19
2022-09-17T17:44:52.510Z,98184.72
2022-09-17T17:47:21.984Z,98190.00
2022-09-17T17:49:51.250Z,98199.22
2022-09-17T17:52:20.670Z,98191.03
2022-09-17T17:54:53.146Z,98169.38
2022-09-17T17:57:23.901Z,98199.19
2022-09-17T17:59:53.224Z,98190.22
2022-09-17T18:02:22.372Z,98190.38
2022-09-17T18:04:51.556Z,98191.03
2022-09-17T18:07:20.278Z,98193.84
2022-09-17T18:09:48.986Z,98199.66
2022-09-17T18:12:18.300Z,98191.88
2022-09-17T18:14:49.098Z,98194.34
2022-09-17T18:17:36.349Z,98196.19
2022-09-17T18:20:25.892Z,98167.78
2022-09-17T18:22:56.226Z,98184.31
2022-09-17T18:25:28.060Z,98190.84
2022-09-17T18:27:59.324Z,98195.25
2022-09-17T18:30:30.293Z,98198.91
2022-09-17T18:32:59.727Z,98205.50
2022-09-17T18:35:50.414Z,98212.09
2022-09-17T18:38:21.950Z,98208.59
2022-09-17T18:40:52.170Z,98209.63
2022-09-17T18:43:21.790Z,98188.81
2022-09-17T18:45:57.036Z,98207.19
2022-09-17T18:48:33.150Z,98203.13
2022-09-17T18:51:07.461Z,98204.56
2022-09-17T18:53:38.143Z,98215.59
2022-09-17T18:56:15.971Z,98213.06
2022-09-17T18:58:49.991Z,98208.53
2022-09-17T19:01:25.137Z,98211.47
2022-09-17T19:03:54.868Z,98199.78
2022-09-17T19:06:25.305Z,98194.28
2022-09-17T19:08:55.705Z,98204.94
2022-09-17T19:11:26.866Z,98212.72
2022-09-17T19:13:58.941Z,98216.81
2022-09-17T19:16:30.691Z,98218.63
2022-09-17T19:18:59.798Z,98233.06
2022-09-17T19:21:29.921Z,98229.03
2022-09-17T19:24:07.870Z,98228.13
2022-09-17T19:26:39.170Z,98233.25
2022-09-17T19:29:14.659Z,98228.25
2022-09-17T19:31:47.129Z,98206.03
2022-09-17T19:34:15.875Z,98236.06
2022-09-17T19:36:44.456Z,98230.22
2022-09-17T19:39:13.242Z,98238.13
2022-09-17T19:41:41.405Z,98238.00
2022-09-17T19:44:10.756Z,98229.31
2022-09-17T19:46:39.782Z,98234.28
2022-09-17T19:49:10.959Z,98245.00
2022-09-17T19:51:42.685Z,98238.19
2022-09-17T19:54:16.024Z,98236.00
2022-09-17T19:56:44.629Z,98239.97
2022-09-17T19:59:13.270Z,98234.25
2022-09-17T20:01:48.663Z,98236.22
2022-09-17T20:04:19.777Z,98250.50
2022-09-17T20:06:48.375Z,98250.72
2022-09-17T20:09:17.025Z,98246.38
2022-09-17T20:11:45.689Z,98226.59
2022-09-17T20:14:17.766Z,98250.22
2022-09-17T20:16:47.425Z,98253.53
2022-09-17T20:19:18.588Z,98256.44
2022-09-17T20:21:48.570Z,98254.69
2022-09-17T20:24:21.289Z,98259.00
2022-09-17T20:26:52.508Z,98273.88
2022-09-17T20:29:21.051Z,98277.25
2022-09-17T20:31:52.279Z,98273.97
2022-09-17T20:34:20.839Z,98271.91
2022-09-17T20:37:06.576Z,98285.50
2022-09-17T20:39:40.121Z,98278.00
2022-09-17T20:42:08.836Z,98281.44
2022-09-17T20:44:46.061Z,98284.19
2022-09-17T20:47:17.267Z,98287.84
2022-09-17T20:49:45.808Z,98290.84
2022-09-17T20:52:20.409Z,98287.16
2022-09-17T20:54:49.609Z,98297.97
2022-09-17T20:57:18.225Z,98293.34
2022-09-17T20:59:53.200Z,98291.47
2022-09-17T21:02:22.506Z,98294.34
2022-09-17T21:04:51.537Z,98286.22
2022-09-17T21:07:21.401Z,98303.22
2022-09-17T21:09:49.998Z,98300.72
2022-09-17T21:12:18.420Z,98302.56
2022-09-17T21:14:49.297Z,98307.22
2022-09-17T21:17:17.817Z,98306.03
2022-09-17T21:19:46.313Z,98306.34
2022-09-17T21:22:14.832Z,98305.44
2022-09-17T21:24:47.334Z,98311.59
2022-09-17T21:27:15.901Z,98307.41
2022-09-17T21:29:44.429Z,98316.47
2022-09-17T21:32:15.979Z,98321.53
2022-09-17T21:34:44.641Z,98320.34
2022-09-17T21:37:21.472Z,98321.94
2022-09-17T21:39:51.923Z,98327.00
2022-09-17T21:42:21.269Z,98304.47
2022-09-17T21:44:52.186Z,98333.41
2022-09-17T21:47:20.729Z,98335.63
2022-09-17T21:49:50.215Z,98341.13
2022-09-17T21:52:18.880Z,98342.59
2022-09-17T21:54:51.754Z,98346.16
2022-09-17T21:57:20.564Z,98344.56
2022-09-17T21:59:53.435Z,98354.59
2022-09-17T22:02:21.940Z,98359.03
2022-09-17T22:04:50.510Z,98355.78
2022-09-17T22:07:23.189Z,98349.19
2022-09-17T22:09:53.333Z,98347.78
2022-09-17T22:12:21.895Z,98349.84
2022-09-17T22:14:53.082Z,98348.63
2022-09-17T22:17:23.662Z,98347.69
2022-09-17T22:19:52.156Z,98348.78
2022-09-17T22:22:20.839Z,98337.41
2022-09-17T22:24:56.605Z,98342.44
2022-09-17T22:27:27.050Z,98350.59
2022-09-17T22:29:55.582Z,98343.50
2022-09-17T22:32:24.133Z,98347.94
2022-09-17T22:34:53.235Z,98341.09
2022-09-17T22:37:21.902Z,98340.00
2022-09-17T22:39:52.272Z,98339.97
2022-09-17T22:42:22.228Z,98328.41
2022-09-17T22:44:50.710Z,98325.09
2022-09-17T22:47:20.417Z,98323.13
2022-09-17T22:49:48.901Z,98328.03
2022-09-17T22:52:19.159Z,98316.97
2022-09-17T22:54:47.622Z,98311.31
2022-09-17T22:57:19.174Z,98319.69
2022-09-17T22:59:49.139Z,98312.56
2022-09-17T23:02:17.757Z,98319.31
2022-09-17T23:04:46.271Z,98324.63
2022-09-17T23:07:14.691Z,98338.72
2022-09-17T23:09:44.336Z,98328.91
2022-09-17T23:12:12.829Z,98341.22
2022-09-17T23:14:41.409Z,98335.59
2022-09-17T23:17:11.272Z,98333.44
2022-09-17T23:19:39.872Z,98342.69
2022-09-17T23:22:09.932Z,98344.72
2022-09-17T23:24:38.458Z,98336.41
2022-09-17T23:27:06.980Z,98338.81
2022-09-17T23:29:35.535Z,98335.00
2022-09-17T23:32:04.000Z,98325.63
2022-09-17T23:34:35.242Z,98321.50
2022-09-17T23:37:03.719Z,98321.38
2022-09-17T23:39:32.163Z,98305.09
2022-09-17T23:42:00.792Z,98303.16
2022-09-17T23:44:29.337Z,98314.44
2022-09-17T23:47:02.156Z,98324.78
2022-09-17T23:49:32.608Z,98323.53
2022-09-17T23:52:04.919Z,98319.28
2022-09-17T23:54:33.352Z,98321.13
2022-09-17T23:57:02.119Z,98313.25
2022-09-17T23:59:31.154Z,98334.13
